Vantage — PBMC — position and weather

sailwx.info

Track history (hours):
 
Tides and Currents Weather Stations Pressure Air Temp Water Temp Dewpoint Dewpoint Depression Visibility Wind Speed Wind Dir Waves Ship Positions

Vantage

Last reported at 2018-May-22 04:12 UTC. Time now 2018-May-24 23:22 UTC.
Position N 25°20' W 080°03'.

Length 100 m; draft 3.9 m.

Type: Cargo ship. MMSI: 244984986.

Date/timePositionNaut miles runAvg speedWind from/ knotsBaromVisibWave heightAir tempDewpointWater temp
2018-May-22 04:12N 25°20' W 080°03'2 8.5
2018-May-22 03:57N 25°22' W 080°02'4 8.1
2018-May-22 03:30N 25°25' W 080°02'4 8.1
2018-May-22 03:00N 25°29' W 080°02'4 8.1
2018-May-22 02:30N 25°33' W 080°02'4 8.3
2018-May-22 02:01N 25°38' W 080°02'4 8.7
2018-May-22 01:31N 25°42' W 080°02'5 9.1
2018-May-22 01:01N 25°46' W 080°02'5 9.4
2018-May-22 00:30N 25°51' W 080°02'5 9.3
2018-May-22 00:00N 25°56' W 080°02'510.0
2018-May-21 23:31N 26°01' W 080°02'510.0
2018-May-21 23:00N 26°05' W 080°05'2 4.2
2018-May-21 22:30N 26°05' W 080°07'0 0.0
2018-May-21 22:00N 26°05' W 080°07'0 0.0
2018-May-21 21:30N 26°05' W 080°07'0 0.0
2018-May-21 21:00N 26°05' W 080°07'0 0.0
2018-May-21 20:30N 26°05' W 080°07'0 0.0
2018-May-21 20:00N 26°05' W 080°07'0 0.0
2018-May-21 19:30N 26°05' W 080°07'0 0.0
2018-May-21 19:00N 26°05' W 080°07'0 0.0
2018-May-21 18:30N 26°05' W 080°07'0 0.0
2018-May-21 18:00N 26°05' W 080°07'0 0.0
2018-May-21 17:30N 26°05' W 080°07'0 0.0
2018-May-21 17:00N 26°05' W 080°07'0 0.0
2018-May-21 16:30N 26°05' W 080°07'0 0.0
2018-May-21 16:00N 26°05' W 080°07'0 0.0
2018-May-21 15:30N 26°05' W 080°07'0 0.0
2018-May-21 15:00N 26°05' W 080°07'0 0.0
2018-May-21 14:30N 26°05' W 080°07'0 0.0
2018-May-21 14:00N 26°05' W 080°07'0 0.0
2018-May-21 13:30N 26°05' W 080°07'0 0.0
2018-May-21 13:00N 26°05' W 080°07'0 0.0
2018-May-21 12:30N 26°05' W 080°07'0 0.0
2018-May-21 12:00N 26°05' W 080°07'0 0.0
2018-May-21 11:30N 26°05' W 080°07'0 0.0
2018-May-21 11:00N 26°05' W 080°07'0 0.0
2018-May-21 10:30N 26°05' W 080°07'0 0.0
2018-May-21 10:00N 26°05' W 080°07'0 0.1
2018-May-21 09:30N 26°05' W 080°07'4 7.4
2018-May-21 09:00N 26°05' W 080°03'612.1
2018-May-21 08:30N 25°60' W 079°60'613.1
2018-May-21 08:00N 25°53' W 079°59'713.9
2018-May-21 07:30N 25°46' W 079°60'612.5
2018-May-21 07:00N 25°40' W 080°00'612.9
2018-May-21 06:30N 25°34' W 079°60'714.0
2018-May-21 06:00N 25°27' W 080°00'  
2018-May-15 06:58N 25°07' W 080°09'710.5
2018-May-15 06:20N 25°13' W 080°06'3 9.9
2018-May-15 06:00N 25°16' W 080°05'510.0
2018-May-15 05:30N 25°21' W 080°03'5 9.6
2018-May-15 05:00N 25°26' W 080°02'510.2
2018-May-15 04:30N 25°31' W 080°02'510.5
2018-May-15 04:01N 25°36' W 080°02'510.3
2018-May-15 03:30N 25°41' W 080°02'5 9.7
2018-May-15 03:00N 25°46' W 080°02'5 9.9
2018-May-15 02:30N 25°51' W 080°02'510.1
2018-May-15 02:00N 25°56' W 080°02'510.0
2018-May-15 01:30N 26°01' W 080°02'510.4
2018-May-15 01:00N 26°06' W 080°04'3 5.2
2018-May-15 00:30N 26°05' W 080°07'0 0.0
2018-May-15 00:00N 26°05' W 080°07'0 0.0
2018-May-14 23:30N 26°05' W 080°07'0 0.0
2018-May-14 23:00N 26°05' W 080°07'0 0.0
2018-May-14 22:30N 26°05' W 080°07'0 0.0
2018-May-14 22:00N 26°05' W 080°07'0 0.0
2018-May-14 21:30N 26°05' W 080°07'0 0.0
2018-May-14 21:00N 26°05' W 080°07'0 0.0
2018-May-14 20:30N 26°05' W 080°07'0 0.0
2018-May-14 20:00N 26°05' W 080°07'0 0.0
2018-May-14 19:30N 26°05' W 080°07'0 0.0
2018-May-14 19:00N 26°05' W 080°07'0 0.0
2018-May-14 18:30N 26°05' W 080°07'0 0.0
2018-May-14 18:00N 26°05' W 080°07'0 0.0
2018-May-14 17:30N 26°05' W 080°07'0 0.0
2018-May-14 17:00N 26°05' W 080°07'0 0.0
2018-May-14 16:30N 26°05' W 080°07'0 0.0
2018-May-14 16:00N 26°05' W 080°07'0 0.0
2018-May-14 15:30N 26°05' W 080°07'0 0.0
2018-May-14 15:00N 26°05' W 080°07'0 0.0
2018-May-14 14:30N 26°05' W 080°07'0 0.0
2018-May-14 14:00N 26°05' W 080°07'0 0.0
2018-May-14 13:30N 26°05' W 080°07'0 0.0
2018-May-14 13:00N 26°05' W 080°07'0 0.0
2018-May-14 12:30N 26°05' W 080°07'4 7.4
2018-May-14 12:01N 26°06' W 080°03'510.5
2018-May-14 11:31N 26°01' W 080°01'816.5
2018-May-14 11:01N 25°53' W 079°60'916.8
2018-May-14 10:30N 25°44' W 079°59'817.3
2018-May-14 10:01N 25°36' W 079°58'917.1
2018-May-14 09:30N 25°27' W 079°58'917.1
2018-May-14 09:00N 25°19' W 080°01'  
Track history (hours):
 
Tides and Currents Weather Stations Pressure Air Temp Water Temp Dewpoint Dewpoint Depression Visibility Wind Speed Wind Dir Waves Ship Positions

Vantage

Last reported at 2018-May-22 04:12 UTC. Time now 2018-May-24 23:22 UTC.
Position N 25°20' W 080°03'.

Length 100 m; draft 3.9 m.

Type: Cargo ship. MMSI: 244984986.

Date/timePositionNaut miles runAvg speedWind from/ knotsBaromVisibWave heightAir tempDewpointWater temp
2018-May-22 04:12N 25°20' W 080°03'2 8.5
2018-May-22 03:57N 25°22' W 080°02'4 8.1
2018-May-22 03:30N 25°25' W 080°02'4 8.1
2018-May-22 03:00N 25°29' W 080°02'4 8.1
2018-May-22 02:30N 25°33' W 080°02'4 8.3
2018-May-22 02:01N 25°38' W 080°02'4 8.7
2018-May-22 01:31N 25°42' W 080°02'5 9.1
2018-May-22 01:01N 25°46' W 080°02'5 9.4
2018-May-22 00:30N 25°51' W 080°02'5 9.3
2018-May-22 00:00N 25°56' W 080°02'510.0
2018-May-21 23:31N 26°01' W 080°02'510.0
2018-May-21 23:00N 26°05' W 080°05'2 4.2
2018-May-21 22:30N 26°05' W 080°07'0 0.0
2018-May-21 22:00N 26°05' W 080°07'0 0.0
2018-May-21 21:30N 26°05' W 080°07'0 0.0
2018-May-21 21:00N 26°05' W 080°07'0 0.0
2018-May-21 20:30N 26°05' W 080°07'0 0.0
2018-May-21 20:00N 26°05' W 080°07'0 0.0
2018-May-21 19:30N 26°05' W 080°07'0 0.0
2018-May-21 19:00N 26°05' W 080°07'0 0.0
2018-May-21 18:30N 26°05' W 080°07'0 0.0
2018-May-21 18:00N 26°05' W 080°07'0 0.0
2018-May-21 17:30N 26°05' W 080°07'0 0.0
2018-May-21 17:00N 26°05' W 080°07'0 0.0
2018-May-21 16:30N 26°05' W 080°07'0 0.0
2018-May-21 16:00N 26°05' W 080°07'0 0.0
2018-May-21 15:30N 26°05' W 080°07'0 0.0
2018-May-21 15:00N 26°05' W 080°07'0 0.0
2018-May-21 14:30N 26°05' W 080°07'0 0.0
2018-May-21 14:00N 26°05' W 080°07'0 0.0
2018-May-21 13:30N 26°05' W 080°07'0 0.0
2018-May-21 13:00N 26°05' W 080°07'0 0.0
2018-May-21 12:30N 26°05' W 080°07'0 0.0
2018-May-21 12:00N 26°05' W 080°07'0 0.0
2018-May-21 11:30N 26°05' W 080°07'0 0.0
2018-May-21 11:00N 26°05' W 080°07'0 0.0
2018-May-21 10:30N 26°05' W 080°07'0 0.0
2018-May-21 10:00N 26°05' W 080°07'0 0.1
2018-May-21 09:30N 26°05' W 080°07'4 7.4
2018-May-21 09:00N 26°05' W 080°03'612.1
2018-May-21 08:30N 25°60' W 079°60'613.1
2018-May-21 08:00N 25°53' W 079°59'713.9
2018-May-21 07:30N 25°46' W 079°60'612.5
2018-May-21 07:00N 25°40' W 080°00'612.9
2018-May-21 06:30N 25°34' W 079°60'714.0
2018-May-21 06:00N 25°27' W 080°00'  
2018-May-15 06:58N 25°07' W 080°09'710.5
2018-May-15 06:20N 25°13' W 080°06'3 9.9
2018-May-15 06:00N 25°16' W 080°05'510.0
2018-May-15 05:30N 25°21' W 080°03'5 9.6
2018-May-15 05:00N 25°26' W 080°02'510.2
2018-May-15 04:30N 25°31' W 080°02'510.5
2018-May-15 04:01N 25°36' W 080°02'510.3
2018-May-15 03:30N 25°41' W 080°02'5 9.7
2018-May-15 03:00N 25°46' W 080°02'5 9.9
2018-May-15 02:30N 25°51' W 080°02'510.1
2018-May-15 02:00N 25°56' W 080°02'510.0
2018-May-15 01:30N 26°01' W 080°02'510.4
2018-May-15 01:00N 26°06' W 080°04'3 5.2
2018-May-15 00:30N 26°05' W 080°07'0 0.0
2018-May-15 00:00N 26°05' W 080°07'0 0.0
2018-May-14 23:30N 26°05' W 080°07'0 0.0
2018-May-14 23:00N 26°05' W 080°07'0 0.0
2018-May-14 22:30N 26°05' W 080°07'0 0.0
2018-May-14 22:00N 26°05' W 080°07'0 0.0
2018-May-14 21:30N 26°05' W 080°07'0 0.0
2018-May-14 21:00N 26°05' W 080°07'0 0.0
2018-May-14 20:30N 26°05' W 080°07'0 0.0
2018-May-14 20:00N 26°05' W 080°07'0 0.0
2018-May-14 19:30N 26°05' W 080°07'0 0.0
2018-May-14 19:00N 26°05' W 080°07'0 0.0
2018-May-14 18:30N 26°05' W 080°07'0 0.0
2018-May-14 18:00N 26°05' W 080°07'0 0.0
2018-May-14 17:30N 26°05' W 080°07'0 0.0
2018-May-14 17:00N 26°05' W 080°07'0 0.0
2018-May-14 16:30N 26°05' W 080°07'0 0.0
2018-May-14 16:00N 26°05' W 080°07'0 0.0
2018-May-14 15:30N 26°05' W 080°07'0 0.0
2018-May-14 15:00N 26°05' W 080°07'0 0.0
2018-May-14 14:30N 26°05' W 080°07'0 0.0
2018-May-14 14:00N 26°05' W 080°07'0 0.0
2018-May-14 13:30N 26°05' W 080°07'0 0.0
2018-May-14 13:00N 26°05' W 080°07'0 0.0
2018-May-14 12:30N 26°05' W 080°07'4 7.4
2018-May-14 12:01N 26°06' W 080°03'510.5
2018-May-14 11:31N 26°01' W 080°01'816.5
2018-May-14 11:01N 25°53' W 079°60'916.8
2018-May-14 10:30N 25°44' W 079°59'817.3
2018-May-14 10:01N 25°36' W 079°58'917.1
2018-May-14 09:30N 25°27' W 079°58'917.1
2018-May-14 09:00N 25°19' W 080°01'  

Dump ship's entire track history